To NAV CANADA Home Page Login to a new session Search on AWWS site Feedback and Comments Disclaimer Vers la page française équivalente Tips FAQ What's new on the site To the Forecasts and Observations / NOTAM section To "File a Flight Plan" website Publications and other links Update of the User's profile FIC Telephone Numbers My Weather Data Folder Route Weather Data Regional Weather Data Local Weather Data To the Forecasts and Observations / NOTAM section
Request Generated 08/22/2017 at 01:44:17 UTC . Weather information available at that time is displayed.

METAR/TAF

MONCTON/GREATER MONCTON ROMEO LEBLANC INTL/NB    

METAR CYQM 220100Z 20007KT 15SM SCT220 21/17 A2994 RMK CI3 SLP139
DENSITY ALT 1000FT=
METAR CYQM 220000Z 22009KT 15SM FEW150 BKN220 23/18 A2993 RMK AC1CI5
SLP138 DENSITY ALT 1200FT=
METAR CYQM 212300Z 23010KT 15SM BKN250 24/18 A2992 RMK CI6 VIS LWR S
- W CONTRAILS SLP132 DENSITY ALT 1400FT=

TAF CYQM 212338Z 2200/2224 23007KT P6SM FEW040 SCT260
FM221000 24005KT P6SM SCT060
BECMG 2215/2217 17012KT
RMK NXT FCST BY 220600Z=
Your time UTC time
Weather data provided by Environment Canada and NAV CANADA